sensor_id;sensor_type;location;lat;lon;timestamp;P1;durP1;ratioP1;P2;durP2;ratioP2
29370;SDS011;16357;52.188;7.838;2023-05-14T00:00:25;5.05;;;3.65;;
29370;SDS011;16357;52.188;7.838;2023-05-14T00:02:52;5.82;;;3.60;;
29370;SDS011;16357;52.188;7.838;2023-05-14T00:05:18;4.43;;;3.47;;
29370;SDS011;16357;52.188;7.838;2023-05-14T00:07:45;6.40;;;4.00;;
29370;SDS011;16357;52.188;7.838;2023-05-14T00:10:11;4.70;;;3.78;;
29370;SDS011;16357;52.188;7.838;2023-05-14T00:12:37;5.93;;;3.90;;
29370;SDS011;16357;52.188;7.838;2023-05-14T00:15:04;7.07;;;4.20;;
29370;SDS011;16357;52.188;7.838;2023-05-14T00:17:31;6.38;;;4.22;;
29370;SDS011;16357;52.188;7.838;2023-05-14T00:19:57;8.20;;;3.80;;
29370;SDS011;16357;52.188;7.838;2023-05-14T00:22:24;5.30;;;3.92;;
29370;SDS011;16357;52.188;7.838;2023-05-14T00:24:50;5.05;;;3.58;;
29370;SDS011;16357;52.188;7.838;2023-05-14T00:27:17;5.72;;;3.90;;
29370;SDS011;16357;52.188;7.838;2023-05-14T00:29:43;6.55;;;3.78;;
29370;SDS011;16357;52.188;7.838;2023-05-14T00:32:10;7.13;;;3.72;;
29370;SDS011;16357;52.188;7.838;2023-05-14T00:34:37;6.68;;;3.70;;
29370;SDS011;16357;52.188;7.838;2023-05-14T00:37:03;6.57;;;3.70;;
29370;SDS011;16357;52.188;7.838;2023-05-14T00:39:30;6.60;;;3.60;;
29370;SDS011;16357;52.188;7.838;2023-05-14T00:41:56;6.20;;;3.67;;
29370;SDS011;16357;52.188;7.838;2023-05-14T00:44:23;4.53;;;3.42;;
29370;SDS011;16357;52.188;7.838;2023-05-14T00:46:49;7.95;;;3.80;;
29370;SDS011;16357;52.188;7.838;2023-05-14T00:49:15;5.95;;;3.90;;
29370;SDS011;16357;52.188;7.838;2023-05-14T00:51:43;5.00;;;3.60;;
29370;SDS011;16357;52.188;7.838;2023-05-14T00:54:15;6.40;;;3.80;;
29370;SDS011;16357;52.188;7.838;2023-05-14T00:56:44;6.38;;;3.80;;
29370;SDS011;16357;52.188;7.838;2023-05-14T00:59:12;8.25;;;3.95;;
29370;SDS011;16357;52.188;7.838;2023-05-14T01:01:39;8.05;;;4.53;;
29370;SDS011;16357;52.188;7.838;2023-05-14T01:04:05;5.05;;;3.78;;
29370;SDS011;16357;52.188;7.838;2023-05-14T01:09:25;4.30;;;3.78;;
29370;SDS011;16357;52.188;7.838;2023-05-14T01:12:14;9.60;;;4.45;;
29370;SDS011;16357;52.188;7.838;2023-05-14T01:14:51;8.75;;;4.45;;
29370;SDS011;16357;52.188;7.838;2023-05-14T01:17:23;6.10;;;4.10;;
29370;SDS011;16357;52.188;7.838;2023-05-14T01:19:53;7.43;;;4.65;;
29370;SDS011;16357;52.188;7.838;2023-05-14T01:22:21;7.45;;;4.10;;
29370;SDS011;16357;52.188;7.838;2023-05-14T01:24:47;7.65;;;4.68;;
29370;SDS011;16357;52.188;7.838;2023-05-14T01:32:50;6.50;;;4.00;;
29370;SDS011;16357;52.188;7.838;2023-05-14T01:35:19;7.57;;;3.90;;
29370;SDS011;16357;52.188;7.838;2023-05-14T01:37:50;6.93;;;4.25;;
29370;SDS011;16357;52.188;7.838;2023-05-14T01:40:18;8.15;;;4.70;;
29370;SDS011;16357;52.188;7.838;2023-05-14T01:42:45;7.78;;;4.65;;
29370;SDS011;16357;52.188;7.838;2023-05-14T01:45:12;7.93;;;4.45;;
29370;SDS011;16357;52.188;7.838;2023-05-14T01:47:38;6.25;;;4.53;;
29370;SDS011;16357;52.188;7.838;2023-05-14T01:50:04;5.88;;;4.25;;
29370;SDS011;16357;52.188;7.838;2023-05-14T01:52:31;4.60;;;4.07;;
29370;SDS011;16357;52.188;7.838;2023-05-14T01:54:58;5.85;;;4.88;;
29370;SDS011;16357;52.188;7.838;2023-05-14T01:57:25;8.80;;;4.93;;
29370;SDS011;16357;52.188;7.838;2023-05-14T01:59:51;6.35;;;4.75;;
29370;SDS011;16357;52.188;7.838;2023-05-14T02:02:17;7.82;;;4.50;;
29370;SDS011;16357;52.188;7.838;2023-05-14T02:04:44;6.93;;;4.75;;
29370;SDS011;16357;52.188;7.838;2023-05-14T02:07:10;8.05;;;4.72;;
29370;SDS011;16357;52.188;7.838;2023-05-14T02:09:37;4.85;;;4.30;;
29370;SDS011;16357;52.188;7.838;2023-05-14T02:12:03;7.05;;;4.68;;
29370;SDS011;16357;52.188;7.838;2023-05-14T02:14:30;6.72;;;4.95;;
29370;SDS011;16357;52.188;7.838;2023-05-14T02:16:56;7.10;;;5.20;;
29370;SDS011;16357;52.188;7.838;2023-05-14T02:19:23;5.40;;;4.45;;
29370;SDS011;16357;52.188;7.838;2023-05-14T02:21:49;8.05;;;5.22;;
29370;SDS011;16357;52.188;7.838;2023-05-14T02:24:15;7.47;;;4.88;;
29370;SDS011;16357;52.188;7.838;2023-05-14T02:26:42;8.15;;;4.75;;
29370;SDS011;16357;52.188;7.838;2023-05-14T02:29:08;5.20;;;4.70;;
29370;SDS011;16357;52.188;7.838;2023-05-14T02:31:35;8.82;;;5.88;;
29370;SDS011;16357;52.188;7.838;2023-05-14T02:34:01;8.45;;;5.97;;
29370;SDS011;16357;52.188;7.838;2023-05-14T02:36:29;10.32;;;7.10;;
29370;SDS011;16357;52.188;7.838;2023-05-14T02:38:57;10.98;;;7.05;;
29370;SDS011;16357;52.188;7.838;2023-05-14T02:41:24;12.00;;;7.32;;
29370;SDS011;16357;52.188;7.838;2023-05-14T02:43:50;9.73;;;7.75;;
29370;SDS011;16357;52.188;7.838;2023-05-14T02:46:17;14.38;;;7.78;;
29370;SDS011;16357;52.188;7.838;2023-05-14T02:48:44;10.13;;;8.35;;
29370;SDS011;16357;52.188;7.838;2023-05-14T02:51:10;9.90;;;7.75;;
29370;SDS011;16357;52.188;7.838;2023-05-14T02:53:37;10.73;;;7.65;;
29370;SDS011;16357;52.188;7.838;2023-05-14T02:56:03;12.40;;;7.88;;
29370;SDS011;16357;52.188;7.838;2023-05-14T02:58:30;10.50;;;7.43;;
29370;SDS011;16357;52.188;7.838;2023-05-14T03:00:57;8.68;;;7.45;;
29370;SDS011;16357;52.188;7.838;2023-05-14T03:03:24;12.63;;;7.95;;
29370;SDS011;16357;52.188;7.838;2023-05-14T03:05:51;10.73;;;7.93;;
29370;SDS011;16357;52.188;7.838;2023-05-14T03:08:17;10.18;;;7.82;;
29370;SDS011;16357;52.188;7.838;2023-05-14T03:10:44;10.10;;;7.45;;
29370;SDS011;16357;52.188;7.838;2023-05-14T03:13:10;10.38;;;7.50;;
29370;SDS011;16357;52.188;7.838;2023-05-14T03:15:37;9.32;;;7.70;;
29370;SDS011;16357;52.188;7.838;2023-05-14T03:18:03;8.57;;;7.63;;
29370;SDS011;16357;52.188;7.838;2023-05-14T03:20:30;10.40;;;8.00;;
29370;SDS011;16357;52.188;7.838;2023-05-14T03:22:56;10.68;;;8.30;;
29370;SDS011;16357;52.188;7.838;2023-05-14T03:25:23;11.95;;;8.60;;
29370;SDS011;16357;52.188;7.838;2023-05-14T03:27:49;9.88;;;8.13;;
29370;SDS011;16357;52.188;7.838;2023-05-14T03:30:16;9.38;;;7.72;;
29370;SDS011;16357;52.188;7.838;2023-05-14T03:32:42;9.13;;;7.50;;
29370;SDS011;16357;52.188;7.838;2023-05-14T03:35:09;10.40;;;7.90;;
29370;SDS011;16357;52.188;7.838;2023-05-14T03:37:36;11.07;;;7.65;;
29370;SDS011;16357;52.188;7.838;2023-05-14T03:40:02;9.07;;;7.63;;
29370;SDS011;16357;52.188;7.838;2023-05-14T03:42:29;10.52;;;7.65;;
29370;SDS011;16357;52.188;7.838;2023-05-14T03:44:55;10.02;;;7.68;;
29370;SDS011;16357;52.188;7.838;2023-05-14T03:47:21;10.45;;;8.00;;
29370;SDS011;16357;52.188;7.838;2023-05-14T03:49:48;13.75;;;8.00;;
29370;SDS011;16357;52.188;7.838;2023-05-14T03:52:15;9.18;;;7.13;;
29370;SDS011;16357;52.188;7.838;2023-05-14T03:54:41;9.35;;;6.47;;
29370;SDS011;16357;52.188;7.838;2023-05-14T03:57:07;12.73;;;7.10;;
29370;SDS011;16357;52.188;7.838;2023-05-14T03:59:34;10.27;;;7.05;;
29370;SDS011;16357;52.188;7.838;2023-05-14T04:02:00;8.93;;;6.75;;
29370;SDS011;16357;52.188;7.838;2023-05-14T04:04:27;8.85;;;6.40;;
29370;SDS011;16357;52.188;7.838;2023-05-14T04:06:53;11.45;;;6.75;;
29370;SDS011;16357;52.188;7.838;2023-05-14T04:09:20;11.18;;;7.03;;
29370;SDS011;16357;52.188;7.838;2023-05-14T04:11:46;10.15;;;6.88;;
29370;SDS011;16357;52.188;7.838;2023-05-14T04:14:12;10.23;;;7.47;;
29370;SDS011;16357;52.188;7.838;2023-05-14T04:16:39;8.82;;;6.80;;
29370;SDS011;16357;52.188;7.838;2023-05-14T04:19:05;7.53;;;6.30;;
29370;SDS011;16357;52.188;7.838;2023-05-14T04:21:32;10.50;;;6.60;;
29370;SDS011;16357;52.188;7.838;2023-05-14T04:23:58;8.88;;;5.85;;
29370;SDS011;16357;52.188;7.838;2023-05-14T04:26:25;8.85;;;6.40;;
29370;SDS011;16357;52.188;7.838;2023-05-14T04:28:51;6.93;;;6.22;;
29370;SDS011;16357;52.188;7.838;2023-05-14T04:31:18;9.20;;;6.40;;
29370;SDS011;16357;52.188;7.838;2023-05-14T04:33:44;10.18;;;6.55;;
29370;SDS011;16357;52.188;7.838;2023-05-14T04:36:11;9.63;;;7.25;;
29370;SDS011;16357;52.188;7.838;2023-05-14T04:38:37;8.15;;;6.47;;
29370;SDS011;16357;52.188;7.838;2023-05-14T04:41:03;11.18;;;7.57;;
29370;SDS011;16357;52.188;7.838;2023-05-14T04:43:31;9.10;;;6.75;;
29370;SDS011;16357;52.188;7.838;2023-05-14T04:45:57;8.00;;;6.47;;
29370;SDS011;16357;52.188;7.838;2023-05-14T04:48:23;10.88;;;6.70;;
29370;SDS011;16357;52.188;7.838;2023-05-14T04:50:50;8.32;;;6.47;;
29370;SDS011;16357;52.188;7.838;2023-05-14T04:53:17;10.63;;;6.82;;
29370;SDS011;16357;52.188;7.838;2023-05-14T04:55:43;8.88;;;6.72;;
29370;SDS011;16357;52.188;7.838;2023-05-14T04:58:09;13.35;;;7.22;;
29370;SDS011;16357;52.188;7.838;2023-05-14T05:00:36;11.43;;;7.47;;
29370;SDS011;16357;52.188;7.838;2023-05-14T05:03:02;11.95;;;7.60;;
29370;SDS011;16357;52.188;7.838;2023-05-14T05:05:29;11.48;;;7.50;;
29370;SDS011;16357;52.188;7.838;2023-05-14T05:07:55;9.93;;;7.60;;
29370;SDS011;16357;52.188;7.838;2023-05-14T05:10:22;11.35;;;8.00;;
29370;SDS011;16357;52.188;7.838;2023-05-14T05:12:49;9.98;;;7.55;;
29370;SDS011;16357;52.188;7.838;2023-05-14T05:15:16;11.20;;;7.80;;
29370;SDS011;16357;52.188;7.838;2023-05-14T05:17:42;10.70;;;7.85;;
29370;SDS011;16357;52.188;7.838;2023-05-14T05:20:09;11.40;;;7.28;;
29370;SDS011;16357;52.188;7.838;2023-05-14T05:22:35;11.80;;;7.85;;
29370;SDS011;16357;52.188;7.838;2023-05-14T05:25:02;10.90;;;8.05;;
29370;SDS011;16357;52.188;7.838;2023-05-14T05:27:33;11.52;;;7.88;;
29370;SDS011;16357;52.188;7.838;2023-05-14T05:30:00;9.05;;;7.50;;
29370;SDS011;16357;52.188;7.838;2023-05-14T05:32:27;10.13;;;7.07;;
29370;SDS011;16357;52.188;7.838;2023-05-14T05:34:53;8.45;;;6.68;;
29370;SDS011;16357;52.188;7.838;2023-05-14T05:37:20;11.43;;;8.15;;
29370;SDS011;16357;52.188;7.838;2023-05-14T05:39:46;10.82;;;7.35;;
29370;SDS011;16357;52.188;7.838;2023-05-14T05:42:13;9.25;;;6.78;;
29370;SDS011;16357;52.188;7.838;2023-05-14T05:44:39;12.02;;;7.72;;
29370;SDS011;16357;52.188;7.838;2023-05-14T05:47:06;10.80;;;7.63;;
29370;SDS011;16357;52.188;7.838;2023-05-14T05:49:32;16.25;;;8.13;;
29370;SDS011;16357;52.188;7.838;2023-05-14T05:51:59;9.98;;;7.30;;
29370;SDS011;16357;52.188;7.838;2023-05-14T05:54:25;13.13;;;7.45;;
29370;SDS011;16357;52.188;7.838;2023-05-14T05:56:52;10.70;;;6.93;;
29370;SDS011;16357;52.188;7.838;2023-05-14T05:59:18;15.32;;;7.53;;
29370;SDS011;16357;52.188;7.838;2023-05-14T06:01:44;8.45;;;6.68;;
29370;SDS011;16357;52.188;7.838;2023-05-14T06:04:11;9.75;;;7.10;;
29370;SDS011;16357;52.188;7.838;2023-05-14T06:06:37;9.38;;;7.20;;
29370;SDS011;16357;52.188;7.838;2023-05-14T06:09:03;10.90;;;6.50;;
29370;SDS011;16357;52.188;7.838;2023-05-14T06:11:31;9.88;;;6.70;;
29370;SDS011;16357;52.188;7.838;2023-05-14T06:13:58;6.47;;;4.97;;
29370;SDS011;16357;52.188;7.838;2023-05-14T06:16:24;5.45;;;4.80;;
29370;SDS011;16357;52.188;7.838;2023-05-14T06:18:51;5.82;;;4.22;;
29370;SDS011;16357;52.188;7.838;2023-05-14T06:21:18;4.53;;;4.10;;
29370;SDS011;16357;52.188;7.838;2023-05-14T06:23:44;4.75;;;4.25;;
29370;SDS011;16357;52.188;7.838;2023-05-14T06:26:11;5.43;;;4.03;;
29370;SDS011;16357;52.188;7.838;2023-05-14T06:28:38;4.10;;;3.70;;
29370;SDS011;16357;52.188;7.838;2023-05-14T06:31:04;4.95;;;3.90;;
29370;SDS011;16357;52.188;7.838;2023-05-14T06:33:30;3.83;;;3.42;;
29370;SDS011;16357;52.188;7.838;2023-05-14T06:35:57;4.13;;;3.60;;
29370;SDS011;16357;52.188;7.838;2023-05-14T06:38:24;5.00;;;3.25;;
29370;SDS011;16357;52.188;7.838;2023-05-14T06:40:51;3.70;;;3.28;;
29370;SDS011;16357;52.188;7.838;2023-05-14T06:43:18;3.75;;;3.28;;
29370;SDS011;16357;52.188;7.838;2023-05-14T06:45:47;3.80;;;3.30;;
29370;SDS011;16357;52.188;7.838;2023-05-14T06:48:14;3.30;;;3.00;;
29370;SDS011;16357;52.188;7.838;2023-05-14T06:50:40;3.92;;;3.53;;
29370;SDS011;16357;52.188;7.838;2023-05-14T06:53:07;4.30;;;2.88;;
29370;SDS011;16357;52.188;7.838;2023-05-14T06:55:33;3.20;;;2.92;;
29370;SDS011;16357;52.188;7.838;2023-05-14T06:58:00;3.33;;;3.00;;
29370;SDS011;16357;52.188;7.838;2023-05-14T07:00:26;2.80;;;2.58;;
29370;SDS011;16357;52.188;7.838;2023-05-14T07:02:53;3.33;;;2.85;;
29370;SDS011;16357;52.188;7.838;2023-05-14T07:05:20;3.17;;;2.58;;
29370;SDS011;16357;52.188;7.838;2023-05-14T07:07:46;3.13;;;2.65;;
29370;SDS011;16357;52.188;7.838;2023-05-14T07:10:12;3.45;;;2.20;;
29370;SDS011;16357;52.188;7.838;2023-05-14T07:12:39;2.85;;;2.65;;
29370;SDS011;16357;52.188;7.838;2023-05-14T07:15:05;2.75;;;2.55;;
29370;SDS011;16357;52.188;7.838;2023-05-14T07:17:32;3.50;;;2.85;;
29370;SDS011;16357;52.188;7.838;2023-05-14T07:19:59;2.30;;;2.10;;
29370;SDS011;16357;52.188;7.838;2023-05-14T07:22:25;3.15;;;2.58;;
29370;SDS011;16357;52.188;7.838;2023-05-14T07:24:52;3.15;;;2.70;;
29370;SDS011;16357;52.188;7.838;2023-05-14T07:27:18;3.72;;;2.60;;
29370;SDS011;16357;52.188;7.838;2023-05-14T07:29:44;3.30;;;2.80;;
29370;SDS011;16357;52.188;7.838;2023-05-14T07:32:11;2.35;;;2.10;;
29370;SDS011;16357;52.188;7.838;2023-05-14T07:34:40;2.33;;;2.13;;
29370;SDS011;16357;52.188;7.838;2023-05-14T07:37:07;3.78;;;2.05;;
29370;SDS011;16357;52.188;7.838;2023-05-14T07:39:33;2.15;;;1.95;;
29370;SDS011;16357;52.188;7.838;2023-05-14T07:42:00;19.35;;;2.30;;
29370;SDS011;16357;52.188;7.838;2023-05-14T07:44:26;2.47;;;2.13;;
29370;SDS011;16357;52.188;7.838;2023-05-14T07:46:53;2.30;;;2.10;;
29370;SDS011;16357;52.188;7.838;2023-05-14T07:49:19;2.38;;;1.95;;
29370;SDS011;16357;52.188;7.838;2023-05-14T07:51:46;4.07;;;2.13;;
29370;SDS011;16357;52.188;7.838;2023-05-14T07:54:12;2.10;;;1.90;;
29370;SDS011;16357;52.188;7.838;2023-05-14T07:56:39;4.57;;;2.42;;
29370;SDS011;16357;52.188;7.838;2023-05-14T07:59:05;2.40;;;2.20;;
29370;SDS011;16357;52.188;7.838;2023-05-14T08:01:32;3.00;;;1.98;;
29370;SDS011;16357;52.188;7.838;2023-05-14T08:03:58;2.03;;;1.83;;
29370;SDS011;16357;52.188;7.838;2023-05-14T08:06:25;2.55;;;2.10;;
29370;SDS011;16357;52.188;7.838;2023-05-14T08:08:52;2.35;;;2.03;;
29370;SDS011;16357;52.188;7.838;2023-05-14T08:11:19;2.85;;;2.20;;
29370;SDS011;16357;52.188;7.838;2023-05-14T08:13:46;1.83;;;1.73;;
29370;SDS011;16357;52.188;7.838;2023-05-14T08:16:13;1.98;;;1.83;;
29370;SDS011;16357;52.188;7.838;2023-05-14T08:18:39;2.75;;;2.00;;
29370;SDS011;16357;52.188;7.838;2023-05-14T08:21:06;2.72;;;1.90;;
29370;SDS011;16357;52.188;7.838;2023-05-14T08:23:32;2.08;;;1.70;;
29370;SDS011;16357;52.188;7.838;2023-05-14T08:25:58;1.70;;;1.60;;
29370;SDS011;16357;52.188;7.838;2023-05-14T08:28:25;3.05;;;2.05;;
29370;SDS011;16357;52.188;7.838;2023-05-14T08:30:51;2.05;;;1.60;;
29370;SDS011;16357;52.188;7.838;2023-05-14T08:33:18;3.22;;;1.63;;
29370;SDS011;16357;52.188;7.838;2023-05-14T08:35:44;2.08;;;1.77;;
29370;SDS011;16357;52.188;7.838;2023-05-14T08:38:11;2.00;;;1.80;;
29370;SDS011;16357;52.188;7.838;2023-05-14T08:40:37;3.25;;;2.10;;
29370;SDS011;16357;52.188;7.838;2023-05-14T08:43:05;1.98;;;1.77;;
29370;SDS011;16357;52.188;7.838;2023-05-14T08:45:33;4.80;;;1.90;;
29370;SDS011;16357;52.188;7.838;2023-05-14T08:48:00;3.80;;;2.00;;
29370;SDS011;16357;52.188;7.838;2023-05-14T08:50:34;1.95;;;1.75;;
29370;SDS011;16357;52.188;7.838;2023-05-14T08:53:01;2.42;;;1.73;;
29370;SDS011;16357;52.188;7.838;2023-05-14T08:55:27;2.25;;;1.73;;
29370;SDS011;16357;52.188;7.838;2023-05-14T08:57:55;2.60;;;1.75;;
29370;SDS011;16357;52.188;7.838;2023-05-14T09:00:21;2.08;;;1.65;;
29370;SDS011;16357;52.188;7.838;2023-05-14T09:02:48;1.73;;;1.63;;
29370;SDS011;16357;52.188;7.838;2023-05-14T09:05:16;1.83;;;1.73;;
29370;SDS011;16357;52.188;7.838;2023-05-14T09:07:44;3.85;;;1.88;;
29370;SDS011;16357;52.188;7.838;2023-05-14T09:10:11;2.97;;;1.88;;
29370;SDS011;16357;52.188;7.838;2023-05-14T09:12:38;2.40;;;1.90;;
29370;SDS011;16357;52.188;7.838;2023-05-14T09:15:04;2.42;;;1.60;;
29370;SDS011;16357;52.188;7.838;2023-05-14T09:17:31;1.95;;;1.75;;
29370;SDS011;16357;52.188;7.838;2023-05-14T09:19:58;2.10;;;1.90;;
29370;SDS011;16357;52.188;7.838;2023-05-14T09:22:25;1.70;;;1.60;;
29370;SDS011;16357;52.188;7.838;2023-05-14T09:25:08;2.13;;;1.58;;
29370;SDS011;16357;52.188;7.838;2023-05-14T09:27:37;1.90;;;1.65;;
29370;SDS011;16357;52.188;7.838;2023-05-14T09:30:04;2.55;;;1.73;;
29370;SDS011;16357;52.188;7.838;2023-05-14T09:32:35;1.92;;;1.60;;
29370;SDS011;16357;52.188;7.838;2023-05-14T09:37:43;2.70;;;1.90;;
29370;SDS011;16357;52.188;7.838;2023-05-14T09:40:11;2.38;;;1.70;;
29370;SDS011;16357;52.188;7.838;2023-05-14T09:42:39;1.83;;;1.70;;
29370;SDS011;16357;52.188;7.838;2023-05-14T09:45:06;3.05;;;1.90;;
29370;SDS011;16357;52.188;7.838;2023-05-14T09:47:34;2.13;;;1.70;;
29370;SDS011;16357;52.188;7.838;2023-05-14T09:50:01;2.15;;;1.92;;
29370;SDS011;16357;52.188;7.838;2023-05-14T09:52:29;2.25;;;1.77;;
29370;SDS011;16357;52.188;7.838;2023-05-14T09:54:56;3.22;;;1.70;;
29370;SDS011;16357;52.188;7.838;2023-05-14T09:57:22;2.42;;;1.75;;
29370;SDS011;16357;52.188;7.838;2023-05-14T09:59:49;1.80;;;1.70;;
29370;SDS011;16357;52.188;7.838;2023-05-14T10:02:20;3.92;;;1.60;;
29370;SDS011;16357;52.188;7.838;2023-05-14T10:07:23;1.98;;;1.60;;
29370;SDS011;16357;52.188;7.838;2023-05-14T10:09:56;2.77;;;1.90;;
29370;SDS011;16357;52.188;7.838;2023-05-14T10:12:27;3.17;;;1.63;;
29370;SDS011;16357;52.188;7.838;2023-05-14T10:14:57;2.05;;;1.85;;
29370;SDS011;16357;52.188;7.838;2023-05-14T10:17:30;2.97;;;1.60;;
29370;SDS011;16357;52.188;7.838;2023-05-14T10:19:58;2.33;;;1.48;;
29370;SDS011;16357;52.188;7.838;2023-05-14T10:22:30;2.42;;;1.92;;
29370;SDS011;16357;52.188;7.838;2023-05-14T10:24:58;1.70;;;1.60;;
29370;SDS011;16357;52.188;7.838;2023-05-14T10:27:25;2.15;;;1.83;;
29370;SDS011;16357;52.188;7.838;2023-05-14T10:29:53;1.70;;;1.60;;
29370;SDS011;16357;52.188;7.838;2023-05-14T10:32:21;2.03;;;1.80;;
29370;SDS011;16357;52.188;7.838;2023-05-14T10:34:50;2.58;;;1.70;;
29370;SDS011;16357;52.188;7.838;2023-05-14T10:37:22;1.70;;;1.55;;
29370;SDS011;16357;52.188;7.838;2023-05-14T10:39:58;2.10;;;1.67;;
29370;SDS011;16357;52.188;7.838;2023-05-14T10:42:34;1.80;;;1.60;;
29370;SDS011;16357;52.188;7.838;2023-05-14T10:45:06;3.15;;;2.03;;
29370;SDS011;16357;52.188;7.838;2023-05-14T10:47:34;2.30;;;1.70;;
29370;SDS011;16357;52.188;7.838;2023-05-14T10:50:02;1.85;;;1.50;;
29370;SDS011;16357;52.188;7.838;2023-05-14T10:52:31;2.35;;;1.80;;
29370;SDS011;16357;52.188;7.838;2023-05-14T10:55:01;2.20;;;1.58;;
29370;SDS011;16357;52.188;7.838;2023-05-14T10:57:37;23.55;;;21.20;;
29370;SDS011;16357;52.188;7.838;2023-05-14T11:00:05;6.65;;;6.00;;
29370;SDS011;16357;52.188;7.838;2023-05-14T11:02:35;3.20;;;2.90;;
29370;SDS011;16357;52.188;7.838;2023-05-14T11:05:16;2.75;;;2.22;;
29370;SDS011;16357;52.188;7.838;2023-05-14T11:07:44;1.85;;;1.73;;
29370;SDS011;16357;52.188;7.838;2023-05-14T11:10:26;2.78;;;1.77;;
29370;SDS011;16357;52.188;7.838;2023-05-14T11:12:55;1.73;;;1.60;;
29370;SDS011;16357;52.188;7.838;2023-05-14T11:15:26;2.60;;;1.70;;
29370;SDS011;16357;52.188;7.838;2023-05-14T11:17:53;3.03;;;1.83;;
29370;SDS011;16357;52.188;7.838;2023-05-14T11:20:19;1.52;;;1.42;;
29370;SDS011;16357;52.188;7.838;2023-05-14T11:22:47;2.72;;;1.70;;
29370;SDS011;16357;52.188;7.838;2023-05-14T11:25:14;1.70;;;1.60;;
29370;SDS011;16357;52.188;7.838;2023-05-14T11:27:44;1.58;;;1.48;;
29370;SDS011;16357;52.188;7.838;2023-05-14T11:30:12;1.85;;;1.40;;
29370;SDS011;16357;52.188;7.838;2023-05-14T11:32:39;1.45;;;1.35;;
29370;SDS011;16357;52.188;7.838;2023-05-14T11:35:06;1.60;;;1.40;;
29370;SDS011;16357;52.188;7.838;2023-05-14T11:37:33;2.97;;;1.80;;
29370;SDS011;16357;52.188;7.838;2023-05-14T11:39:59;2.97;;;1.77;;
29370;SDS011;16357;52.188;7.838;2023-05-14T11:42:26;1.80;;;1.60;;
29370;SDS011;16357;52.188;7.838;2023-05-14T11:44:53;2.28;;;1.58;;
29370;SDS011;16357;52.188;7.838;2023-05-14T11:47:20;1.92;;;1.73;;
29370;SDS011;16357;52.188;7.838;2023-05-14T11:49:47;2.17;;;1.75;;
29370;SDS011;16357;52.188;7.838;2023-05-14T11:52:15;1.60;;;1.42;;
29370;SDS011;16357;52.188;7.838;2023-05-14T11:54:44;1.90;;;1.70;;
29370;SDS011;16357;52.188;7.838;2023-05-14T11:57:20;1.98;;;1.48;;
29370;SDS011;16357;52.188;7.838;2023-05-14T11:59:47;1.65;;;1.55;;
29370;SDS011;16357;52.188;7.838;2023-05-14T12:02:16;1.88;;;1.55;;
29370;SDS011;16357;52.188;7.838;2023-05-14T12:04:48;5.72;;;1.67;;
29370;SDS011;16357;52.188;7.838;2023-05-14T12:07:17;1.60;;;1.40;;
29370;SDS011;16357;52.188;7.838;2023-05-14T12:09:47;1.80;;;1.60;;
29370;SDS011;16357;52.188;7.838;2023-05-14T12:12:21;1.98;;;1.50;;
29370;SDS011;16357;52.188;7.838;2023-05-14T12:14:48;2.15;;;1.70;;
29370;SDS011;16357;52.188;7.838;2023-05-14T12:19:44;2.35;;;1.95;;
29370;SDS011;16357;52.188;7.838;2023-05-14T12:22:13;3.20;;;1.70;;
29370;SDS011;16357;52.188;7.838;2023-05-14T12:24:41;2.28;;;1.75;;
29370;SDS011;16357;52.188;7.838;2023-05-14T12:27:09;1.40;;;1.30;;
29370;SDS011;16357;52.188;7.838;2023-05-14T12:29:36;1.60;;;1.50;;
29370;SDS011;16357;52.188;7.838;2023-05-14T12:32:07;2.30;;;1.73;;
29370;SDS011;16357;52.188;7.838;2023-05-14T12:34:35;2.20;;;1.40;;
29370;SDS011;16357;52.188;7.838;2023-05-14T12:37:03;2.17;;;1.60;;
29370;SDS011;16357;52.188;7.838;2023-05-14T12:39:31;2.25;;;1.42;;
29370;SDS011;16357;52.188;7.838;2023-05-14T12:41:58;1.92;;;1.65;;
29370;SDS011;16357;52.188;7.838;2023-05-14T12:44:25;2.33;;;1.60;;
29370;SDS011;16357;52.188;7.838;2023-05-14T12:46:51;2.83;;;1.52;;
29370;SDS011;16357;52.188;7.838;2023-05-14T12:49:18;2.92;;;1.40;;
29370;SDS011;16357;52.188;7.838;2023-05-14T12:51:45;2.85;;;1.50;;
29370;SDS011;16357;52.188;7.838;2023-05-14T12:54:12;1.70;;;1.40;;
29370;SDS011;16357;52.188;7.838;2023-05-14T12:56:40;1.88;;;1.42;;
29370;SDS011;16357;52.188;7.838;2023-05-14T12:59:07;4.20;;;1.50;;
29370;SDS011;16357;52.188;7.838;2023-05-14T13:01:34;2.30;;;1.42;;
29370;SDS011;16357;52.188;7.838;2023-05-14T13:04:01;2.22;;;1.40;;
29370;SDS011;16357;52.188;7.838;2023-05-14T13:06:28;1.95;;;1.30;;
29370;SDS011;16357;52.188;7.838;2023-05-14T13:08:54;1.27;;;1.17;;
29370;SDS011;16357;52.188;7.838;2023-05-14T13:11:21;1.77;;;1.40;;
29370;SDS011;16357;52.188;7.838;2023-05-14T13:13:48;2.58;;;1.40;;
29370;SDS011;16357;52.188;7.838;2023-05-14T13:16:14;1.65;;;1.55;;
29370;SDS011;16357;52.188;7.838;2023-05-14T13:18:42;1.20;;;1.10;;
29370;SDS011;16357;52.188;7.838;2023-05-14T13:21:08;2.78;;;1.40;;
29370;SDS011;16357;52.188;7.838;2023-05-14T13:23:34;1.40;;;1.30;;
29370;SDS011;16357;52.188;7.838;2023-05-14T13:26:01;1.67;;;1.38;;
29370;SDS011;16357;52.188;7.838;2023-05-14T13:28:27;2.45;;;1.38;;
29370;SDS011;16357;52.188;7.838;2023-05-14T13:40:48;4.32;;;1.45;;
29370;SDS011;16357;52.188;7.838;2023-05-14T13:43:14;5.55;;;2.92;;
29370;SDS011;16357;52.188;7.838;2023-05-14T13:45:41;3.25;;;2.00;;
29370;SDS011;16357;52.188;7.838;2023-05-14T13:48:08;2.75;;;1.88;;
29370;SDS011;16357;52.188;7.838;2023-05-14T13:50:34;2.95;;;2.08;;
29370;SDS011;16357;52.188;7.838;2023-05-14T13:53:01;1.85;;;1.70;;
29370;SDS011;16357;52.188;7.838;2023-05-14T13:55:27;3.35;;;1.60;;
29370;SDS011;16357;52.188;7.838;2023-05-14T13:57:53;2.22;;;1.80;;
29370;SDS011;16357;52.188;7.838;2023-05-14T14:00:20;5.00;;;2.15;;
29370;SDS011;16357;52.188;7.838;2023-05-14T14:02:46;3.67;;;1.60;;
29370;SDS011;16357;52.188;7.838;2023-05-14T14:05:13;2.70;;;1.60;;
29370;SDS011;16357;52.188;7.838;2023-05-14T14:07:40;1.73;;;1.52;;
29370;SDS011;16357;52.188;7.838;2023-05-14T14:10:07;1.80;;;1.70;;
29370;SDS011;16357;52.188;7.838;2023-05-14T14:12:34;2.00;;;1.50;;
29370;SDS011;16357;52.188;7.838;2023-05-14T14:15:00;1.85;;;1.60;;
29370;SDS011;16357;52.188;7.838;2023-05-14T14:17:27;2.35;;;1.50;;
29370;SDS011;16357;52.188;7.838;2023-05-14T14:19:54;3.15;;;1.67;;
29370;SDS011;16357;52.188;7.838;2023-05-14T14:22:20;2.13;;;1.50;;
29370;SDS011;16357;52.188;7.838;2023-05-14T14:24:48;1.80;;;1.50;;
29370;SDS011;16357;52.188;7.838;2023-05-14T14:27:14;2.67;;;1.50;;
29370;SDS011;16357;52.188;7.838;2023-05-14T14:29:40;1.98;;;1.55;;
29370;SDS011;16357;52.188;7.838;2023-05-14T14:32:07;2.00;;;1.50;;
29370;SDS011;16357;52.188;7.838;2023-05-14T14:34:34;2.67;;;1.65;;
29370;SDS011;16357;52.188;7.838;2023-05-14T14:37:00;2.38;;;1.50;;
29370;SDS011;16357;52.188;7.838;2023-05-14T14:39:26;2.20;;;1.40;;
29370;SDS011;16357;52.188;7.838;2023-05-14T14:41:53;3.60;;;1.50;;
29370;SDS011;16357;52.188;7.838;2023-05-14T14:44:20;2.60;;;1.63;;
29370;SDS011;16357;52.188;7.838;2023-05-14T14:46:46;2.13;;;1.55;;
29370;SDS011;16357;52.188;7.838;2023-05-14T14:49:12;2.72;;;1.45;;
29370;SDS011;16357;52.188;7.838;2023-05-14T14:51:39;2.38;;;1.63;;
29370;SDS011;16357;52.188;7.838;2023-05-14T14:54:05;3.03;;;1.55;;
29370;SDS011;16357;52.188;7.838;2023-05-14T14:56:32;2.30;;;1.70;;
29370;SDS011;16357;52.188;7.838;2023-05-14T14:58:59;2.15;;;1.40;;
29370;SDS011;16357;52.188;7.838;2023-05-14T15:01:26;2.22;;;1.60;;
29370;SDS011;16357;52.188;7.838;2023-05-14T15:03:53;2.42;;;1.70;;
29370;SDS011;16357;52.188;7.838;2023-05-14T15:06:19;2.28;;;1.80;;
29370;SDS011;16357;52.188;7.838;2023-05-14T15:08:45;1.67;;;1.58;;
29370;SDS011;16357;52.188;7.838;2023-05-14T15:11:12;2.53;;;1.65;;